createdAt,value
2018-04-15T00:02:16.107Z,4.33
2018-04-15T00:04:45.517Z,4.97
2018-04-15T00:07:15.219Z,3.90
2018-04-15T00:09:44.773Z,4.10
2018-04-15T00:12:14.110Z,5.00
2018-04-15T00:14:43.698Z,4.67
2018-04-15T00:17:13.244Z,4.93
2018-04-15T00:19:42.819Z,4.60
2018-04-15T00:22:12.402Z,4.60
2018-04-15T00:24:42.063Z,4.57
2018-04-15T00:27:11.674Z,5.23
2018-04-15T00:29:41.254Z,4.80
2018-04-15T00:32:10.802Z,5.30
2018-04-15T00:34:40.380Z,4.70
2018-04-15T00:37:09.930Z,4.80
2018-04-15T00:39:39.494Z,4.83
2018-04-15T00:42:09.103Z,5.17
2018-04-15T00:44:38.655Z,4.37
2018-04-15T00:47:08.204Z,4.63
2018-04-15T00:49:37.851Z,4.67
2018-04-15T00:52:07.424Z,4.90
2018-04-15T00:54:36.989Z,5.40
2018-04-15T00:57:06.539Z,4.63
2018-04-15T00:59:36.096Z,5.37
2018-04-15T01:02:05.714Z,4.07
2018-04-15T01:04:35.255Z,4.60
2018-04-15T01:07:05.506Z,4.20
2018-04-15T01:09:35.065Z,4.57
2018-04-15T01:12:04.628Z,4.77
2018-04-15T01:14:34.203Z,4.30
2018-04-15T01:17:03.943Z,4.57
2018-04-15T01:19:33.287Z,4.60
2018-04-15T01:22:02.896Z,4.90
2018-04-15T01:24:32.237Z,4.63
2018-04-15T01:27:01.801Z,5.17
2018-04-15T01:29:31.370Z,5.03
2018-04-15T01:32:00.925Z,5.33
2018-04-15T01:34:30.560Z,4.63
2018-04-15T01:37:00.119Z,4.80
2018-04-15T01:39:29.674Z,5.30
2018-04-15T01:41:59.348Z,5.10
2018-04-15T01:44:28.907Z,4.80
2018-04-15T01:46:58.530Z,4.90
2018-04-15T01:49:28.173Z,5.97
2018-04-15T01:51:57.511Z,5.57
2018-04-15T01:54:27.092Z,5.03
2018-04-15T01:56:56.649Z,5.37
2018-04-15T01:59:26.214Z,5.03
2018-04-15T02:01:55.762Z,4.40
2018-04-15T02:04:25.314Z,4.83
2018-04-15T02:06:54.906Z,5.53
2018-04-15T02:09:24.574Z,5.43
2018-04-15T02:11:54.250Z,5.57
2018-04-15T02:14:23.837Z,5.00
2018-04-15T02:16:53.384Z,5.30
2018-04-15T02:19:22.779Z,5.00
2018-04-15T02:21:52.350Z,6.17
2018-04-15T02:24:22.115Z,5.30
2018-04-15T02:26:51.672Z,5.70
2018-04-15T02:29:21.256Z,5.70
2018-04-15T02:31:50.813Z,5.00
2018-04-15T02:34:20.398Z,5.50
2018-04-15T02:36:50.122Z,5.20
2018-04-15T02:39:19.803Z,6.57
2018-04-15T02:41:49.495Z,5.00
2018-04-15T02:44:19.068Z,5.10
2018-04-15T02:46:48.628Z,5.20
2018-04-15T02:49:18.183Z,4.87
2018-04-15T02:51:47.859Z,4.97
2018-04-15T02:54:17.179Z,5.63
2018-04-15T02:56:46.764Z,5.57
2018-04-15T02:59:16.319Z,5.67
2018-04-15T03:01:45.870Z,5.53
2018-04-15T03:04:15.328Z,6.97
2018-04-15T03:06:44.870Z,5.87
2018-04-15T03:09:14.447Z,6.10
2018-04-15T03:11:44.005Z,6.70
2018-04-15T03:14:13.564Z,6.50
2018-04-15T03:16:43.134Z,6.40
2018-04-15T03:19:12.714Z,6.27
2018-04-15T03:21:42.271Z,6.53
2018-04-15T03:24:12.167Z,6.47
2018-04-15T03:26:41.848Z,6.93
2018-04-15T03:29:11.419Z,6.50
2018-04-15T03:31:40.983Z,5.87
2018-04-15T03:34:10.540Z,6.30
2018-04-15T03:36:40.099Z,7.10
2018-04-15T03:39:09.675Z,8.03
2018-04-15T03:41:39.238Z,8.13
2018-04-15T03:44:08.825Z,8.83
2018-04-15T03:46:38.414Z,9.10
2018-04-15T03:49:07.963Z,8.60
2018-04-15T03:51:37.581Z,7.83
2018-04-15T03:54:07.148Z,9.03
2018-04-15T03:56:36.712Z,8.00
2018-04-15T03:59:06.318Z,8.63
2018-04-15T04:01:35.895Z,9.17
2018-04-15T04:04:05.464Z,9.47
2018-04-15T04:06:35.060Z,8.80
2018-04-15T04:09:03.883Z,9.63
2018-04-15T04:11:33.219Z,10.30
2018-04-15T04:14:02.796Z,9.80
2018-04-15T04:16:32.373Z,10.60
2018-04-15T04:19:13.657Z,8.67
2018-04-15T04:21:54.085Z,9.40
2018-04-15T04:24:34.434Z,9.47
2018-04-15T04:27:05.283Z,9.50
2018-04-15T04:29:34.887Z,10.00
2018-04-15T04:32:04.455Z,9.20
2018-04-15T04:34:34.042Z,10.00
2018-04-15T04:37:03.733Z,9.60
2018-04-15T04:39:33.304Z,9.40
2018-04-15T04:42:02.884Z,10.30
2018-04-15T04:44:32.476Z,9.73
2018-04-15T04:47:02.026Z,10.43
2018-04-15T04:49:31.595Z,8.97
2018-04-15T04:52:01.151Z,9.00
2018-04-15T04:54:30.705Z,9.63
2018-04-15T04:57:00.297Z,10.30
2018-04-15T04:59:29.855Z,10.70
2018-04-15T05:01:59.483Z,10.40
2018-04-15T05:04:29.033Z,9.73
2018-04-15T05:06:58.595Z,8.50
2018-04-15T05:09:28.151Z,9.03
2018-04-15T05:11:57.712Z,10.47
2018-04-15T05:14:27.272Z,10.87
2018-04-15T05:16:56.875Z,10.33
2018-04-15T05:19:26.453Z,10.87
2018-04-15T05:21:56.028Z,10.20
2018-04-15T05:24:25.604Z,9.70
2018-04-15T05:26:55.623Z,10.40
2018-04-15T05:29:25.191Z,9.70
2018-04-15T05:31:54.759Z,10.30
2018-04-15T05:34:24.351Z,10.53
2018-04-15T05:36:53.922Z,10.80
2018-04-15T05:39:23.476Z,9.83
2018-04-15T05:41:53.043Z,9.97
2018-04-15T05:44:22.598Z,9.07
2018-04-15T05:46:52.176Z,11.00
2018-04-15T05:49:21.779Z,9.50
2018-04-15T05:51:51.535Z,9.23
2018-04-15T05:54:21.108Z,9.27
2018-04-15T05:56:50.656Z,9.67
2018-04-15T05:59:20.219Z,9.70
2018-04-15T06:01:49.817Z,10.90
2018-04-15T06:04:19.400Z,9.30
2018-04-15T06:06:48.961Z,9.10
2018-04-15T06:09:18.523Z,9.93
2018-04-15T06:11:48.088Z,9.63
2018-04-15T06:14:17.686Z,10.60
2018-04-15T06:16:47.242Z,10.23
2018-04-15T06:19:16.806Z,10.00
2018-04-15T06:21:46.184Z,9.80
2018-04-15T06:24:15.754Z,9.77
2018-04-15T06:26:45.430Z,10.67
2018-04-15T06:29:15.015Z,10.00
2018-04-15T06:31:44.576Z,10.10
2018-04-15T06:34:14.151Z,10.60
2018-04-15T06:36:43.972Z,9.30
2018-04-15T06:39:13.759Z,9.60
2018-04-15T06:41:43.316Z,9.30
2018-04-15T06:44:12.909Z,10.60
2018-04-15T06:46:42.455Z,10.43
2018-04-15T06:49:12.067Z,11.20
2018-04-15T06:51:41.602Z,10.50
2018-04-15T06:54:11.260Z,10.83
2018-04-15T06:56:41.036Z,9.40
2018-04-15T06:59:10.699Z,9.60
2018-04-15T07:01:40.256Z,9.20
2018-04-15T07:04:09.999Z,9.83
2018-04-15T07:06:39.704Z,9.10
2018-04-15T07:09:09.313Z,9.20
2018-04-15T07:11:38.663Z,9.73
2018-04-15T07:14:08.230Z,9.67
2018-04-15T07:16:37.787Z,9.63
2018-04-15T07:19:07.361Z,9.80
2018-04-15T07:21:36.916Z,8.80
2018-04-15T07:24:06.474Z,10.07
2018-04-15T07:26:36.078Z,8.90
2018-04-15T07:29:05.407Z,9.07
2018-04-15T07:31:34.975Z,8.60
2018-04-15T07:34:04.555Z,8.90
2018-04-15T07:36:34.142Z,7.50
2018-04-15T07:39:04.137Z,8.17
2018-04-15T07:41:33.518Z,8.40
2018-04-15T07:44:03.062Z,7.40
2018-04-15T07:46:35.596Z,7.57
2018-04-15T07:49:05.167Z,8.03
2018-04-15T07:51:34.749Z,6.97
2018-04-15T07:54:04.311Z,6.83
2018-04-15T07:56:33.895Z,6.90
2018-04-15T07:59:06.396Z,7.50
2018-04-15T08:01:35.974Z,7.63
2018-04-15T08:04:05.536Z,7.50
2018-04-15T08:06:35.089Z,6.30
2018-04-15T08:09:03.913Z,7.00
2018-04-15T08:11:33.232Z,7.40
2018-04-15T08:14:02.797Z,6.63
2018-04-15T08:16:32.362Z,6.30
2018-04-15T08:19:01.943Z,8.40
2018-04-15T08:21:31.521Z,7.00
2018-04-15T08:24:01.249Z,6.77
2018-04-15T08:26:30.803Z,5.93
2018-04-15T08:29:00.375Z,6.50
2018-04-15T08:31:30.096Z,5.53
2018-04-15T08:33:59.657Z,5.80
2018-04-15T08:36:29.218Z,5.43
2018-04-15T08:38:58.796Z,5.33
2018-04-15T08:41:28.352Z,5.53
2018-04-15T08:43:57.902Z,5.97
2018-04-15T08:46:27.532Z,6.23
2018-04-15T08:48:57.122Z,6.00
2018-04-15T08:51:26.681Z,5.40
2018-04-15T08:53:56.274Z,5.33
2018-04-15T08:56:25.831Z,6.13
2018-04-15T08:58:55.387Z,5.23
2018-04-15T09:01:25.143Z,5.10
2018-04-15T09:03:54.696Z,5.30
2018-04-15T09:06:24.257Z,4.50
2018-04-15T09:08:53.824Z,5.30
2018-04-15T09:11:23.412Z,5.10
2018-04-15T09:13:53.083Z,5.93
2018-04-15T09:16:22.672Z,4.93
2018-04-15T09:18:52.218Z,4.13
2018-04-15T09:21:21.803Z,5.00
2018-04-15T09:23:51.379Z,4.20
2018-04-15T09:26:20.949Z,4.50
2018-04-15T09:28:50.500Z,4.17
2018-04-15T09:31:20.138Z,4.20
2018-04-15T09:33:49.704Z,5.20
2018-04-15T09:36:19.491Z,4.20
2018-04-15T09:38:49.075Z,4.80
2018-04-15T09:41:18.635Z,4.70
2018-04-15T09:43:48.186Z,4.40
2018-04-15T09:46:17.757Z,4.37
2018-04-15T09:48:47.315Z,5.40
2018-04-15T09:51:16.885Z,5.03
2018-04-15T09:53:46.451Z,4.17
2018-04-15T09:56:16.010Z,4.80
2018-04-15T09:58:45.650Z,4.33
2018-04-15T10:01:17.195Z,4.80
2018-04-15T10:03:46.758Z,4.70
2018-04-15T10:06:16.309Z,4.93
2018-04-15T10:08:45.642Z,4.40
2018-04-15T10:11:15.212Z,4.63
2018-04-15T10:13:44.760Z,4.63
2018-04-15T10:16:14.463Z,5.43
2018-04-15T10:18:44.031Z,4.30
2018-04-15T10:21:13.584Z,4.50
2018-04-15T10:23:43.158Z,4.70
2018-04-15T10:26:12.729Z,5.23
2018-04-15T10:28:42.297Z,4.90
2018-04-15T10:31:12.419Z,5.77
2018-04-15T10:33:41.967Z,4.70
2018-04-15T10:36:11.526Z,4.83
2018-04-15T10:38:41.121Z,5.37
2018-04-15T10:41:10.899Z,4.73
2018-04-15T10:43:40.463Z,5.37
2018-04-15T10:46:10.035Z,5.43
2018-04-15T10:48:39.603Z,6.00
2018-04-15T10:51:09.165Z,5.23
2018-04-15T10:53:38.722Z,5.00
2018-04-15T10:56:08.329Z,5.00
2018-04-15T10:58:37.906Z,5.07
2018-04-15T11:01:07.450Z,5.23
2018-04-15T11:03:36.813Z,5.37
2018-04-15T11:06:06.383Z,5.47
2018-04-15T11:08:35.946Z,5.80
2018-04-15T11:11:05.559Z,5.77
2018-04-15T11:13:35.124Z,6.00
2018-04-15T11:16:04.703Z,6.00
2018-04-15T11:18:34.274Z,5.83
2018-04-15T11:21:03.667Z,6.60
2018-04-15T11:23:33.221Z,6.70
2018-04-15T11:26:02.778Z,6.40
2018-04-15T11:28:32.376Z,6.40
2018-04-15T11:31:01.934Z,6.40
2018-04-15T11:33:31.490Z,7.60
2018-04-15T11:36:01.382Z,6.17
2018-04-15T11:38:30.993Z,6.00
2018-04-15T11:41:00.576Z,6.70
2018-04-15T11:43:30.265Z,6.10
2018-04-15T11:45:59.815Z,6.13
2018-04-15T11:48:29.499Z,6.60
2018-04-15T11:50:59.162Z,6.87
2018-04-15T11:53:28.718Z,6.90
2018-04-15T11:55:58.290Z,5.83
2018-04-15T11:58:27.895Z,6.60
2018-04-15T12:00:57.683Z,6.10
2018-04-15T12:03:27.252Z,6.27
2018-04-15T12:05:56.811Z,6.20
2018-04-15T12:08:26.376Z,7.23
2018-04-15T12:10:55.956Z,6.67
2018-04-15T12:13:25.525Z,6.30
2018-04-15T12:15:55.081Z,6.70
2018-04-15T12:18:24.671Z,6.90
2018-04-15T12:20:54.234Z,7.37
2018-04-15T12:23:23.839Z,7.70
2018-04-15T12:25:53.431Z,6.90
2018-04-15T12:28:22.992Z,7.73
2018-04-15T12:30:52.542Z,6.67
2018-04-15T12:33:22.114Z,8.00
2018-04-15T12:35:51.728Z,7.17
2018-04-15T12:38:21.451Z,7.17
2018-04-15T12:40:51.067Z,8.07
2018-04-15T12:43:20.628Z,7.33
2018-04-15T12:45:50.188Z,7.20
2018-04-15T12:48:19.774Z,7.80
2018-04-15T12:50:49.359Z,7.20
2018-04-15T12:53:19.047Z,7.40
2018-04-15T12:55:48.599Z,7.20
2018-04-15T12:58:18.188Z,6.57
2018-04-15T13:00:47.772Z,7.57
2018-04-15T13:03:17.656Z,8.10
2018-04-15T13:05:47.210Z,7.17
2018-04-15T13:08:16.779Z,8.13
2018-04-15T13:10:46.557Z,7.77
2018-04-15T13:13:16.126Z,8.10
2018-04-15T13:15:45.684Z,8.03
2018-04-15T13:18:15.247Z,7.30
2018-04-15T13:20:44.820Z,7.63
2018-04-15T13:23:14.391Z,8.23
2018-04-15T13:25:43.739Z,7.23
2018-04-15T13:28:13.337Z,6.87
2018-04-15T13:30:42.883Z,7.17
2018-04-15T13:33:12.464Z,7.97
2018-04-15T13:35:42.188Z,6.40
2018-04-15T13:38:11.741Z,7.50
2018-04-15T13:40:41.300Z,7.60
2018-04-15T13:43:10.914Z,7.70
2018-04-15T13:45:40.474Z,5.90
2018-04-15T13:48:09.850Z,8.00
2018-04-15T13:50:39.429Z,8.37
2018-04-15T13:53:08.995Z,7.60
2018-04-15T13:55:38.957Z,7.33
2018-04-15T13:58:08.286Z,7.10
2018-04-15T14:00:37.882Z,8.60
2018-04-15T14:03:07.492Z,8.10
2018-04-15T14:05:37.134Z,8.50
2018-04-15T14:08:06.916Z,8.10
2018-04-15T14:10:36.485Z,8.80
2018-04-15T14:13:06.271Z,8.90
2018-04-15T14:15:36.355Z,8.30
2018-04-15T14:18:06.255Z,7.57
2018-04-15T14:20:35.978Z,8.50
2018-04-15T14:23:05.669Z,8.73
2018-04-15T14:25:37.208Z,9.07
2018-04-15T14:28:06.968Z,8.67
2018-04-15T14:30:36.555Z,9.40
2018-04-15T14:33:06.218Z,7.97
2018-04-15T14:35:35.925Z,8.47
2018-04-15T14:38:05.500Z,7.57
2018-04-15T14:40:35.059Z,7.50
2018-04-15T14:43:04.643Z,8.00
2018-04-15T14:45:34.207Z,7.70
2018-04-15T14:48:03.773Z,7.67
2018-04-15T14:50:33.072Z,8.77
2018-04-15T14:53:02.691Z,8.90
2018-04-15T14:55:32.271Z,17.03
2018-04-15T14:58:01.588Z,17.17
2018-04-15T15:00:31.320Z,8.90
2018-04-15T15:03:01.764Z,9.27
2018-04-15T15:05:31.115Z,8.80
2018-04-15T15:08:00.678Z,9.30
2018-04-15T15:10:29.804Z,8.43
2018-04-15T15:12:59.355Z,9.60
2018-04-15T15:15:29.027Z,9.80
2018-04-15T15:17:58.444Z,9.87
2018-04-15T15:20:27.727Z,9.13
2018-04-15T15:22:57.002Z,9.87
2018-04-15T15:25:26.321Z,9.70
2018-04-15T15:27:55.393Z,8.90
2018-04-15T15:30:24.906Z,9.50
2018-04-15T15:32:54.105Z,10.00
2018-04-15T15:35:23.392Z,10.30
2018-04-15T15:37:52.708Z,9.70
2018-04-15T15:40:22.027Z,9.50
2018-04-15T15:42:51.101Z,10.13
2018-04-15T15:45:20.727Z,9.43
2018-04-15T15:47:50.183Z,10.00
2018-04-15T15:50:19.558Z,9.40
2018-04-15T15:52:48.647Z,9.93
2018-04-15T15:55:18.051Z,9.07
2018-04-15T15:57:47.359Z,9.40
2018-04-15T16:00:16.640Z,10.57
2018-04-15T16:02:45.938Z,9.07
2018-04-15T16:05:15.219Z,9.73
2018-04-15T16:07:44.518Z,10.00
2018-04-15T16:10:13.812Z,10.27
2018-04-15T16:12:43.210Z,9.33
2018-04-15T16:15:12.498Z,8.90
2018-04-15T16:17:41.782Z,8.93
2018-04-15T16:20:11.084Z,10.67
2018-04-15T16:22:40.360Z,9.20
2018-04-15T16:25:09.714Z,9.87
2018-04-15T16:27:38.989Z,9.07
2018-04-15T16:30:08.313Z,10.37
2018-04-15T16:32:37.630Z,9.93
2018-04-15T16:35:06.927Z,10.37
2018-04-15T16:37:36.243Z,10.90
2018-04-15T16:40:06.140Z,10.30
2018-04-15T16:42:35.222Z,10.70
2018-04-15T16:45:04.542Z,10.07
2018-04-15T16:47:33.652Z,10.40
2018-04-15T16:50:02.928Z,11.73
2018-04-15T16:52:32.320Z,13.03
2018-04-15T16:55:01.600Z,10.20
2018-04-15T16:57:30.910Z,9.97
2018-04-15T17:00:00.205Z,10.80
2018-04-15T17:02:29.685Z,10.90
2018-04-15T17:04:58.991Z,10.17
2018-04-15T17:07:28.562Z,11.20
2018-04-15T17:09:57.844Z,9.83
2018-04-15T17:12:27.439Z,9.30
2018-04-15T17:14:56.727Z,9.77
2018-04-15T17:17:26.017Z,10.37
2018-04-15T17:19:55.402Z,9.10
2018-04-15T17:22:24.757Z,9.70
2018-04-15T17:24:54.250Z,9.00
2018-04-15T17:27:23.793Z,9.53
2018-04-15T17:29:53.500Z,8.83
2018-04-15T17:32:22.792Z,8.20
2018-04-15T17:34:52.229Z,9.77
2018-04-15T17:37:21.793Z,8.60
2018-04-15T17:39:51.131Z,8.53
2018-04-15T17:42:20.667Z,9.17
2018-04-15T17:44:49.966Z,9.40
2018-04-15T17:47:19.357Z,10.07
2018-04-15T17:49:48.640Z,8.93
2018-04-15T17:52:17.922Z,9.00
2018-04-15T17:54:47.237Z,8.83
2018-04-15T17:57:16.214Z,8.70
2018-04-15T17:59:45.566Z,9.30
2018-04-15T18:02:14.893Z,9.90
2018-04-15T18:04:44.207Z,8.00
2018-04-15T18:07:13.781Z,10.33
2018-04-15T18:09:43.081Z,8.83
2018-04-15T18:12:12.649Z,9.73
2018-04-15T18:14:41.949Z,8.70
2018-04-15T18:17:11.239Z,9.60
2018-04-15T18:19:40.766Z,8.80
2018-04-15T18:22:10.333Z,10.23
2018-04-15T18:24:39.619Z,9.60
2018-04-15T18:27:09.148Z,9.53
2018-04-15T18:29:38.679Z,8.90
2018-04-15T18:32:08.279Z,12.20
2018-04-15T18:34:37.631Z,10.90
2018-04-15T18:37:07.418Z,10.77
2018-04-15T18:39:36.712Z,9.13
2018-04-15T18:42:06.004Z,9.60
2018-04-15T18:44:35.302Z,10.03
2018-04-15T18:47:04.698Z,9.20
2018-04-15T18:49:33.796Z,9.17
2018-04-15T18:52:03.111Z,9.57
2018-04-15T18:54:32.399Z,10.43
2018-04-15T18:57:01.491Z,9.70
2018-04-15T18:59:30.787Z,9.63
2018-04-15T19:02:00.095Z,9.47
2018-04-15T19:04:29.663Z,10.87
2018-04-15T19:06:59.024Z,9.87
2018-04-15T19:09:28.305Z,9.03
2018-04-15T19:11:57.581Z,10.17
2018-04-15T19:14:26.883Z,12.10
2018-04-15T19:16:56.193Z,11.30
2018-04-15T19:19:25.593Z,9.50
2018-04-15T19:21:54.830Z,9.07
2018-04-15T19:24:24.119Z,9.90
2018-04-15T19:26:53.615Z,10.17
2018-04-15T19:29:22.914Z,11.03
2018-04-15T19:31:52.216Z,10.40
2018-04-15T19:34:21.537Z,10.20
2018-04-15T19:36:51.039Z,9.70
2018-04-15T19:39:20.791Z,9.90
2018-04-15T19:41:50.137Z,8.67
2018-04-15T19:44:19.907Z,9.67
2018-04-15T19:46:49.220Z,8.93
2018-04-15T19:49:18.519Z,9.50
2018-04-15T19:51:47.581Z,8.50
2018-04-15T19:54:17.154Z,9.80
2018-04-15T19:56:46.255Z,9.73
2018-04-15T19:59:15.551Z,10.47
2018-04-15T20:01:44.983Z,11.30
2018-04-15T20:04:14.270Z,9.90
2018-04-15T20:06:43.551Z,8.93
2018-04-15T20:09:12.867Z,10.20
2018-04-15T20:11:42.183Z,10.30
2018-04-15T20:14:11.629Z,9.93
2018-04-15T20:16:41.060Z,10.17
2018-04-15T20:19:10.171Z,9.80
2018-04-15T20:21:39.231Z,9.60
2018-04-15T20:24:08.611Z,10.17
2018-04-15T20:26:37.902Z,10.40
2018-04-15T20:29:07.357Z,10.27
2018-04-15T20:31:36.911Z,10.03
2018-04-15T20:34:06.268Z,10.23
2018-04-15T20:36:35.615Z,10.00
2018-04-15T20:39:04.412Z,11.00
2018-04-15T20:41:33.508Z,10.00
2018-04-15T20:44:02.899Z,10.87
2018-04-15T20:46:32.675Z,10.27
2018-04-15T20:49:02.037Z,10.03
2018-04-15T20:51:31.324Z,10.77
2018-04-15T20:54:00.624Z,9.67
2018-04-15T20:56:29.888Z,10.27
2018-04-15T20:58:59.217Z,11.43
2018-04-15T21:01:28.585Z,10.10
2018-04-15T21:03:57.887Z,10.30
2018-04-15T21:06:27.094Z,10.00
2018-04-15T21:08:56.447Z,10.77
2018-04-15T21:11:25.772Z,10.53
2018-04-15T21:13:55.066Z,10.70
2018-04-15T21:16:24.459Z,10.87
2018-04-15T21:18:53.776Z,10.50
2018-04-15T21:21:23.067Z,11.30
2018-04-15T21:23:52.369Z,9.40
2018-04-15T21:26:22.208Z,11.20
2018-04-15T21:28:51.491Z,10.50
2018-04-15T21:31:20.849Z,12.20
2018-04-15T21:33:50.165Z,11.40
2018-04-15T21:36:19.445Z,11.00
2018-04-15T21:38:48.595Z,11.20
2018-04-15T21:41:17.667Z,11.17
2018-04-15T21:43:46.960Z,11.13
2018-04-15T21:46:16.337Z,10.80
2018-04-15T21:48:45.433Z,10.30
2018-04-15T21:51:14.784Z,10.60
2018-04-15T21:53:44.103Z,10.60
2018-04-15T21:56:13.615Z,11.63
2018-04-15T21:58:42.955Z,12.40
2018-04-15T22:01:12.249Z,10.60
2018-04-15T22:03:42.080Z,11.87
2018-04-15T22:06:11.673Z,12.40
2018-04-15T22:08:41.103Z,11.43
2018-04-15T22:11:10.421Z,12.10
2018-04-15T22:13:39.884Z,11.67
2018-04-15T22:16:09.208Z,11.27
2018-04-15T22:18:38.516Z,11.30
2018-04-15T22:21:07.841Z,11.83
2018-04-15T22:23:37.151Z,12.00
2018-04-15T22:26:06.464Z,12.30
2018-04-15T22:28:35.605Z,12.60
2018-04-15T22:31:04.904Z,11.70
2018-04-15T22:33:34.496Z,12.33
2018-04-15T22:36:03.800Z,12.87
2018-04-15T22:38:33.178Z,12.23
2018-04-15T22:41:02.482Z,12.03
2018-04-15T22:43:31.892Z,11.60
2018-04-15T22:46:01.264Z,12.07
2018-04-15T22:48:36.038Z,11.73
2018-04-15T22:51:05.413Z,11.80
2018-04-15T22:53:34.527Z,12.07
2018-04-15T22:56:09.516Z,11.03
2018-04-15T22:58:44.458Z,13.20
2018-04-15T23:01:14.027Z,11.83
2018-04-15T23:03:43.661Z,10.50
2018-04-15T23:06:13.461Z,11.23
2018-04-15T23:08:43.841Z,11.50
2018-04-15T23:11:13.459Z,10.80
2018-04-15T23:13:43.918Z,11.17
2018-04-15T23:16:13.265Z,12.37
2018-04-15T23:18:43.095Z,12.53
2018-04-15T23:21:12.655Z,11.47
2018-04-15T23:23:42.385Z,10.77
2018-04-15T23:26:12.029Z,11.17
2018-04-15T23:28:41.598Z,11.10
2018-04-15T23:31:11.171Z,11.10
2018-04-15T23:33:40.747Z,12.30
2018-04-15T23:36:10.326Z,12.27
2018-04-15T23:38:39.974Z,11.20
2018-04-15T23:41:09.928Z,12.50
2018-04-15T23:43:39.295Z,13.53
2018-04-15T23:46:08.944Z,11.33
2018-04-15T23:48:38.517Z,12.20
2018-04-15T23:51:08.104Z,11.97
2018-04-15T23:53:37.712Z,11.40
2018-04-15T23:56:07.380Z,11.77
2018-04-15T23:58:36.950Z,12.60
